Time;durP1;ratioP1;P1;durP2;ratioP2;P2;SDS_P1;SDS_P2;PMS_P1;PMS_P2;Temp;Humidity;BMP_temperature;BMP_pressure;BME280_temperature;BME280_humidity;BME280_pressure;Samples;Min_cycle;Max_cycle;Signal;HPM_P1;HPM_P2
2022/01/18 00:00:51;;;;;;;24.97;14.20;;;;;;;5.73;74.61;98370.91;5067532;28;20956;-71
2022/01/18 00:03:16;;;;;;;32.90;14.30;;;;;;;5.94;75.01;98371.34;5065165;28;20445;-70
2022/01/18 00:05:45;;;;;;;25.80;13.20;;;;;;;6.05;73.53;98364.69;5071431;28;20266;-71
2022/01/18 00:08:11;;;;;;;24.73;13.70;;;;;;;6.46;72.71;98369.03;5072242;28;20636;-71
2022/01/18 00:10:37;;;;;;;22.40;13.77;;;;;;;5.89;73.98;98376.00;5071788;28;20430;-69
2022/01/18 00:15:36;;;;;;;25.20;14.10;;;;;;;6.11;73.79;98369.50;5064436;28;20231;-71
2022/01/18 00:20:45;;;;;;;21.30;13.57;;;;;;;6.21;73.20;98370.59;5064567;28;20456;-70
2022/01/18 00:23:11;;;;;;;21.83;13.63;;;;;;;6.29;73.15;98378.78;5068089;28;20512;-71
2022/01/18 00:25:40;;;;;;;22.20;13.90;;;;;;;6.15;73.53;98381.41;5067393;28;20920;-70
2022/01/18 00:28:06;;;;;;;23.10;14.33;;;;;;;6.03;73.94;98393.41;5069666;28;20213;-70
2022/01/18 00:35:47;;;;;;;25.90;13.20;;;;;;;6.29;73.18;98394.41;5076046;28;20416;-70
2022/01/18 00:38:28;;;;;;;23.70;13.70;;;;;;;6.31;72.80;98394.28;5071586;28;20467;-72
2022/01/18 00:40:54;;;;;;;22.50;13.30;;;;;;;6.39;72.66;98388.59;5071648;28;20460;-71
2022/01/18 00:43:20;;;;;;;22.30;12.37;;;;;;;6.37;72.45;98391.28;5068662;28;20432;-71
2022/01/18 00:45:45;;;;;;;23.20;13.97;;;;;;;6.44;72.79;98391.75;5066377;28;20200;-70
2022/01/18 00:48:11;;;;;;;23.03;13.90;;;;;;;6.42;72.30;98396.25;5071661;28;20198;-70
2022/01/18 00:50:37;;;;;;;20.20;12.33;;;;;;;6.45;72.69;98398.63;5065552;28;20174;-69
2022/01/18 00:53:08;;;;;;;23.00;13.40;;;;;;;6.43;72.17;98393.53;5071386;28;20429;-70
2022/01/18 00:55:37;;;;;;;22.97;14.37;;;;;;;6.37;72.52;98403.50;5071752;28;20188;-71
2022/01/18 00:58:02;;;;;;;24.20;13.70;;;;;;;6.39;72.57;98404.25;5071014;28;20462;-71
2022/01/18 01:00:28;;;;;;;19.70;12.47;;;;;;;6.53;72.16;98401.59;5064804;28;20420;-70
2022/01/18 01:02:54;;;;;;;19.27;12.97;;;;;;;6.71;71.71;98404.81;5064281;28;20177;-71
2022/01/18 01:05:19;;;;;;;21.20;13.20;;;;;;;6.66;71.48;98398.22;5071400;28;20653;-70
2022/01/18 01:07:45;;;;;;;22.40;12.57;;;;;;;6.10;73.14;98405.13;5070553;28;20194;-70
2022/01/18 01:10:10;;;;;;;26.47;14.07;;;;;;;6.01;74.06;98413.47;5073803;28;20303;-69
2022/01/18 01:12:36;;;;;;;23.03;13.77;;;;;;;6.46;72.47;98400.31;5078695;28;20170;-70
2022/01/18 01:15:09;;;;;;;21.77;13.37;;;;;;;6.39;72.64;98406.84;5071172;28;20189;-69
2022/01/18 01:44:59;;;;;;;25.90;14.17;;;;;;;6.33;73.32;98425.44;5029225;28;20466;-71
2022/01/18 01:47:34;;;;;;;23.83;14.63;;;;;;;6.02;74.03;98428.16;5042295;28;20864;-71
2022/01/18 01:50:00;;;;;;;25.90;14.80;;;;;;;6.52;72.93;98423.38;5050263;28;20424;-70
2022/01/18 01:52:26;;;;;;;24.93;14.70;;;;;;;6.56;72.47;98427.44;5049111;28;20429;-70
2022/01/18 01:54:53;;;;;;;25.60;13.93;;;;;;;6.64;72.07;98426.94;5050772;28;20425;-71
2022/01/18 01:57:19;;;;;;;21.83;13.37;;;;;;;6.52;72.69;98430.34;5053103;28;20194;-69
2022/01/18 01:59:45;;;;;;;29.80;16.10;;;;;;;6.62;72.26;98426.22;5054178;28;20409;-70
2022/01/18 02:02:10;;;;;;;24.40;15.07;;;;;;;6.46;72.72;98436.75;5047750;28;20207;-70
2022/01/18 02:04:36;;;;;;;25.30;15.00;;;;;;;6.41;72.86;98444.03;5053583;28;20233;-70
2022/01/18 02:07:02;;;;;;;25.33;15.70;;;;;;;6.83;72.01;98434.44;5053595;28;20182;-69
2022/01/18 02:09:28;;;;;;;27.00;14.47;;;;;;;6.64;72.68;98431.34;5054169;28;20210;-70
2022/01/18 02:11:56;;;;;;;25.00;16.20;;;;;;;6.44;73.19;98430.81;5054512;28;20850;-70
2022/01/18 02:14:23;;;;;;;25.23;15.03;;;;;;;6.15;74.29;98436.09;5054009;28;20183;-71
2022/01/18 02:22:19;;;;;;;24.13;14.60;;;;;;;6.57;71.99;98439.53;5056057;28;20456;-71
2022/01/18 02:24:45;;;;;;;23.67;14.43;;;;;;;7.02;71.17;98435.88;5062013;28;20410;-70
2022/01/18 02:27:11;;;;;;;23.63;15.30;;;;;;;7.08;70.36;98432.84;5054909;28;20417;-70
2022/01/18 02:29:36;;;;;;;22.77;14.17;;;;;;;6.78;71.77;98436.50;5060335;28;20504;-70
2022/01/18 02:32:03;;;;;;;30.73;15.00;;;;;;;6.68;71.65;98433.66;5053791;28;20701;-71
2022/01/18 02:34:28;;;;;;;34.33;17.77;;;;;;;6.90;71.54;98432.25;5054739;28;20179;-71
2022/01/18 02:36:57;;;;;;;27.07;16.43;;;;;;;7.05;70.98;98430.47;5063070;28;20937;-71
2022/01/18 02:39:28;;;;;;;34.60;16.10;;;;;;;7.13;70.35;98436.00;5053467;28;20579;-71
2022/01/18 02:42:03;;;;;;;22.33;14.20;;;;;;;7.30;70.24;98441.88;5053048;28;20548;-70
2022/01/18 02:44:29;;;;;;;24.20;13.80;;;;;;;7.30;69.58;98434.06;5051724;28;21051;-70
2022/01/18 02:46:56;;;;;;;27.07;15.03;;;;;;;7.44;69.90;98436.56;5053684;28;20434;-71
2022/01/18 02:49:22;;;;;;;29.90;15.80;;;;;;;7.27;69.95;98429.03;5053516;28;20544;-71
2022/01/18 02:51:47;;;;;;;25.40;14.70;;;;;;;7.42;69.53;98430.63;5053120;28;20429;-70
2022/01/18 02:54:15;;;;;;;31.50;14.73;;;;;;;6.69;71.32;98431.88;5053242;28;20597;-71
2022/01/18 02:56:48;;;;;;;21.07;14.07;;;;;;;6.84;70.69;98437.88;5053274;28;20227;-69
2022/01/18 02:59:18;;;;;;;23.20;15.50;;;;;;;6.60;72.15;98434.13;5052463;28;20952;-71
2022/01/18 03:04:29;;;;;;;31.00;16.17;;;;;;;6.81;71.65;98431.09;5045847;28;20478;-71
2022/01/18 03:06:55;;;;;;;27.90;15.23;;;;;;;6.72;71.91;98427.31;5053167;28;20417;-71
2022/01/18 03:09:20;;;;;;;26.57;15.47;;;;;;;6.55;72.46;98424.94;5051456;28;20206;-68
2022/01/18 03:11:46;;;;;;;25.27;15.20;;;;;;;6.45;72.65;98424.66;5052731;28;20198;-71
2022/01/18 03:14:12;;;;;;;38.40;17.07;;;;;;;6.55;72.87;98412.72;5053799;28;20183;-70
2022/01/18 03:16:38;;;;;;;33.50;17.03;;;;;;;6.47;73.20;98422.00;5053084;28;20422;-69
2022/01/18 03:19:03;;;;;;;27.27;15.83;;;;;;;5.95;74.26;98426.84;5052309;28;20201;-70
2022/01/18 03:21:29;;;;;;;29.93;17.63;;;;;;;6.23;73.45;98430.41;5051803;28;20347;-71
2022/01/18 03:24:10;;;;;;;30.20;17.03;;;;;;;6.23;73.61;98430.41;5055607;28;20204;-70
2022/01/18 03:28:04;;;;;;;32.43;16.90;;;;;;;6.43;73.57;98421.31;5059437;28;20179;-70
2022/01/18 03:29:23;;;;;;;37.87;18.10;;;;;;;6.05;74.50;98429.78;5051498;28;20528;-71
2022/01/18 03:31:49;;;;;;;51.27;20.40;;;;;;;6.33;73.33;98423.69;5052690;28;20517;-70
2022/01/18 03:34:14;;;;;;;89.33;28.33;;;;;;;6.48;73.08;98424.50;5047728;28;20183;-73
2022/01/18 03:36:40;;;;;;;82.57;25.87;;;;;;;6.49;73.05;98425.34;5049845;28;20175;-67
2022/01/18 03:39:06;;;;;;;50.27;21.20;;;;;;;6.57;72.48;98423.91;5051721;28;20199;-71
2022/01/18 03:41:31;;;;;;;104.53;29.63;;;;;;;6.48;73.29;98414.06;5052077;28;20552;-70
2022/01/18 03:43:57;;;;;;;79.97;25.40;;;;;;;6.64;72.87;98423.53;5050467;28;20444;-70
2022/01/18 03:46:24;;;;;;;57.93;23.37;;;;;;;7.01;71.50;98426.38;5052019;28;20187;-71
2022/01/18 03:48:51;;;;;;;39.03;19.60;;;;;;;7.17;70.43;98432.25;5051627;28;20198;-70
2022/01/18 03:51:17;;;;;;;39.87;20.10;;;;;;;7.11;70.34;98427.44;5052309;28;20451;-69
2022/01/18 03:53:43;;;;;;;40.93;21.37;;;;;;;6.91;70.90;98426.13;5052599;28;20504;-70
2022/01/18 03:56:09;;;;;;;38.70;19.97;;;;;;;6.83;71.28;98426.59;5051501;28;20506;-71
2022/01/18 03:58:35;;;;;;;39.67;20.07;;;;;;;7.04;70.68;98423.56;5051687;28;20203;-71
2022/01/18 04:01:00;;;;;;;34.73;19.63;;;;;;;7.04;70.92;98423.56;5051379;28;20264;-70
2022/01/18 04:03:26;;;;;;;38.83;18.60;;;;;;;6.88;70.92;98432.38;5063403;28;20421;-71
2022/01/18 04:05:52;;;;;;;46.53;24.37;;;;;;;7.02;71.07;98438.47;5063734;28;20795;-69
2022/01/18 04:08:21;;;;;;;37.83;21.60;;;;;;;6.99;70.71;98434.31;5071042;28;20453;-69
2022/01/18 04:10:47;;;;;;;35.20;19.73;;;;;;;7.03;70.76;98437.53;5065492;28;20168;-71
2022/01/18 04:13:13;;;;;;;43.37;20.67;;;;;;;7.03;70.56;98434.94;5069291;28;20573;-70
2022/01/18 04:15:39;;;;;;;43.30;22.47;;;;;;;7.18;70.64;98436.50;5072113;28;20540;-69
2022/01/18 04:18:14;;;;;;;42.90;21.93;;;;;;;7.06;71.18;98440.78;5070449;28;20214;-72
2022/01/18 04:28:53;;;;;;;38.40;19.50;;;;;;;6.49;72.24;98443.56;5074479;28;20810;-71
2022/01/18 04:31:18;;;;;;;34.83;19.10;;;;;;;6.65;71.75;98452.06;5064316;28;20478;-71
2022/01/18 04:33:44;;;;;;;36.00;18.80;;;;;;;7.12;70.25;98446.53;5066598;28;20507;-71
2022/01/18 04:36:10;;;;;;;34.83;20.00;;;;;;;7.22;70.35;98448.41;5071098;28;20175;-70
2022/01/18 04:38:36;;;;;;;37.20;18.63;;;;;;;7.23;70.08;98447.50;5070822;28;20203;-70
2022/01/18 04:41:08;;;;;;;33.90;16.40;;;;;;;7.08;69.56;98448.47;5070235;28;20488;-70
2022/01/18 04:44:12;;;;;;;46.03;19.60;;;;;;;6.86;70.53;98449.88;5064104;28;20483;-70
2022/01/18 04:49:21;;;;;;;29.80;17.57;;;;;;;6.50;72.01;98464.31;5071020;28;20868;-71
2022/01/18 04:51:47;;;;;;;33.87;17.90;;;;;;;6.48;72.04;98466.16;5064405;28;20425;-69
2022/01/18 04:54:15;;;;;;;41.57;19.30;;;;;;;6.52;72.05;98454.63;5068725;28;20231;-71
2022/01/18 04:59:08;;;;;;;40.10;20.67;;;;;;;6.91;70.53;98458.25;5065587;28;20527;-71
2022/01/18 05:01:35;;;;;;;43.30;21.47;;;;;;;6.98;70.45;98463.06;5057786;28;20732;-70
2022/01/18 05:04:01;;;;;;;39.27;19.07;;;;;;;6.86;70.26;98462.91;5059185;28;20425;-71
2022/01/18 05:06:26;;;;;;;35.30;19.17;;;;;;;6.40;71.82;98468.41;5051794;28;20504;-69
2022/01/18 05:08:53;;;;;;;36.00;20.10;;;;;;;6.25;73.12;98475.38;5051246;28;20441;-69
2022/01/18 05:11:21;;;;;;;44.87;20.77;;;;;;;6.59;71.76;98468.94;5050590;28;20183;-71
2022/01/18 05:14:10;;;;;;;35.33;19.53;;;;;;;6.64;71.48;98466.03;5050677;28;20986;-70
2022/01/18 05:19:20;;;;;;;38.03;20.50;;;;;;;6.09;73.83;98458.13;5050674;28;20438;-71
2022/01/18 05:24:21;;;;;;;40.50;19.97;;;;;;;6.07;73.67;98461.72;5051641;28;20429;-72
2022/01/18 05:26:47;;;;;;;41.63;21.00;;;;;;;5.95;74.15;98464.09;5054928;28;20475;-71
2022/01/18 05:29:12;;;;;;;43.13;20.50;;;;;;;5.94;74.33;98457.22;5056130;28;20809;-71
2022/01/18 05:31:38;;;;;;;41.10;19.83;;;;;;;6.01;74.87;98462.09;5053421;28;20588;-70
2022/01/18 05:34:03;;;;;;;52.30;21.90;;;;;;;5.85;74.91;98468.19;5057212;28;20183;-71
2022/01/18 05:36:29;;;;;;;46.03;21.67;;;;;;;6.08;73.70;98471.22;5052077;28;20186;-68
2022/01/18 05:38:55;;;;;;;44.80;21.50;;;;;;;5.93;74.13;98465.13;5050092;28;20276;-69
2022/01/18 05:41:20;;;;;;;40.90;19.50;;;;;;;5.83;74.45;98473.50;5050345;28;20202;-70
2022/01/18 05:43:46;;;;;;;39.87;19.60;;;;;;;6.17;73.43;98473.28;5059064;28;20185;-70
2022/01/18 05:46:12;;;;;;;47.57;21.63;;;;;;;6.03;73.94;98476.69;5050500;28;20205;-70
2022/01/18 05:48:38;;;;;;;47.63;21.50;;;;;;;6.38;73.07;98471.09;5050935;28;20541;-70
2022/01/18 05:51:03;;;;;;;48.27;20.20;;;;;;;6.09;72.89;98470.28;5058348;28;20422;-70
2022/01/18 05:53:34;;;;;;;42.27;20.53;;;;;;;6.18;73.01;98474.09;5050436;28;20179;-68
2022/01/18 05:56:02;;;;;;;45.93;20.37;;;;;;;6.09;73.06;98481.53;5050665;28;20186;-69
2022/01/18 05:58:27;;;;;;;41.40;20.27;;;;;;;6.23;72.81;98477.28;5050084;28;20446;-70
2022/01/18 06:00:54;;;;;;;38.80;19.57;;;;;;;6.10;72.98;98475.41;5051462;28;20461;-69
2022/01/18 06:03:36;;;;;;;40.60;21.27;;;;;;;6.24;72.73;98474.56;5044222;28;20214;-71
2022/01/18 06:08:46;;;;;;;44.73;22.07;;;;;;;6.41;71.60;98470.91;5050235;28;20452;-70
2022/01/18 06:11:11;;;;;;;42.30;21.27;;;;;;;6.03;73.43;98479.31;5048943;28;20417;-70
2022/01/18 06:13:37;;;;;;;37.40;18.40;;;;;;;6.35;72.15;98478.25;5050637;28;20203;-70
2022/01/18 06:16:03;;;;;;;46.33;20.27;;;;;;;6.23;72.53;98483.28;5049865;28;20182;-71
2022/01/18 06:18:28;;;;;;;39.67;21.33;;;;;;;6.76;70.70;98480.06;5049590;28;20199;-70
2022/01/18 06:20:54;;;;;;;45.70;21.10;;;;;;;6.85;69.93;98478.66;5058083;28;20207;-70
2022/01/18 06:23:21;;;;;;;36.50;20.20;;;;;;;6.10;72.05;98484.97;5053336;28;20249;-71
2022/01/18 06:25:46;;;;;;;32.40;19.50;;;;;;;6.36;71.20;98487.75;5049068;28;20460;-70
2022/01/18 06:28:12;;;;;;;34.50;19.87;;;;;;;6.57;70.88;98486.41;5048969;28;20473;-71
2022/01/18 06:30:37;;;;;;;47.10;20.47;;;;;;;6.85;70.03;98482.09;5031635;28;20253;-70
2022/01/18 06:33:03;;;;;;;38.63;20.80;;;;;;;6.86;69.72;98486.38;5050253;28;20183;-70
2022/01/18 06:35:29;;;;;;;34.47;20.00;;;;;;;6.87;69.81;98485.44;5049172;28;20175;-70
2022/01/18 06:37:54;;;;;;;40.33;19.40;;;;;;;6.97;69.71;98484.84;5048583;28;20735;-71
2022/01/18 06:40:20;;;;;;;35.97;20.00;;;;;;;7.12;69.19;98494.28;5049772;28;20179;-70
2022/01/18 06:42:46;;;;;;;38.87;19.90;;;;;;;7.17;68.98;98486.16;5061244;28;20261;-70
2022/01/18 06:45:11;;;;;;;36.63;19.87;;;;;;;5.58;73.38;98502.72;5052606;28;20260;-70
2022/01/18 06:47:38;;;;;;;36.37;19.20;;;;;;;6.05;71.87;98513.06;5052797;28;20210;-71
2022/01/18 06:50:05;;;;;;;38.70;20.00;;;;;;;6.45;71.41;98510.63;5053135;28;20422;-70
2022/01/18 06:52:30;;;;;;;43.87;20.43;;;;;;;6.59;70.47;98510.63;5053404;28;20795;-70
2022/01/18 06:54:56;;;;;;;37.50;18.50;;;;;;;6.71;70.26;98502.97;5053957;28;20483;-69
2022/01/18 06:57:22;;;;;;;42.90;21.17;;;;;;;6.68;69.92;98518.81;5055670;28;20179;-70
2022/01/18 06:59:47;;;;;;;37.57;21.43;;;;;;;6.32;71.33;98520.13;5056294;28;20241;-70
2022/01/18 07:02:13;;;;;;;42.50;21.07;;;;;;;6.66;70.54;98518.88;5047445;28;20212;-71
2022/01/18 07:04:38;;;;;;;46.23;19.73;;;;;;;6.82;70.15;98520.53;5060892;28;20605;-71
2022/01/18 07:07:04;;;;;;;42.27;20.90;;;;;;;6.70;69.54;98528.19;5062065;28;20179;-70
2022/01/18 07:09:30;;;;;;;39.57;20.50;;;;;;;6.89;69.20;98527.03;5053217;28;20199;-69
2022/01/18 07:11:56;;;;;;;40.37;18.93;;;;;;;6.76;69.31;98529.56;5060080;28;20444;-69
2022/01/18 07:14:22;;;;;;;37.87;20.47;;;;;;;6.80;69.56;98535.44;5072098;28;20185;-70
2022/01/18 07:16:48;;;;;;;43.40;20.03;;;;;;;6.84;69.33;98529.94;5073416;28;20515;-71
2022/01/18 07:19:14;;;;;;;44.20;20.80;;;;;;;6.71;69.84;98532.47;5070923;28;20468;-73
2022/01/18 07:21:39;;;;;;;37.83;20.07;;;;;;;6.79;69.82;98526.78;5066818;28;20207;-70
2022/01/18 07:24:15;;;;;;;38.67;19.33;;;;;;;6.47;70.59;98526.19;5069254;28;20186;-70
2022/01/18 07:26:41;;;;;;;36.70;19.30;;;;;;;6.63;70.13;98534.69;5072958;28;20182;-70
2022/01/18 07:29:06;;;;;;;38.23;20.13;;;;;;;6.66;69.71;98536.31;5072253;28;20505;-72
2022/01/18 07:31:32;;;;;;;37.10;20.10;;;;;;;6.83;69.74;98541.28;5072990;28;20713;-70
2022/01/18 07:33:58;;;;;;;36.67;19.27;;;;;;;6.87;69.23;98537.56;5063940;28;20187;-71
2022/01/18 07:36:23;;;;;;;41.50;20.20;;;;;;;6.95;69.02;98541.44;5069718;28;20661;-70
2022/01/18 07:38:49;;;;;;;34.83;20.03;;;;;;;6.18;70.70;98545.22;5068161;28;20206;-70
2022/01/18 07:41:14;;;;;;;36.73;20.03;;;;;;;6.19;70.69;98544.28;5069196;28;20283;-71
2022/01/18 07:43:41;;;;;;;37.93;19.73;;;;;;;6.63;70.08;98546.91;5071662;28;20600;-72
2022/01/18 07:46:06;;;;;;;37.30;19.60;;;;;;;6.60;69.76;98547.94;5068507;28;20186;-71
2022/01/18 07:48:32;;;;;;;40.87;19.50;;;;;;;6.75;69.32;98546.16;5071307;28;21042;-71
2022/01/18 07:50:58;;;;;;;34.47;18.43;;;;;;;6.69;69.46;98546.50;5070698;28;20190;-71
2022/01/18 07:53:28;;;;;;;36.27;20.40;;;;;;;6.90;68.90;98549.56;5071253;28;20270;-73
2022/01/18 07:55:54;;;;;;;42.03;21.00;;;;;;;7.07;68.36;98551.09;5070558;28;20449;-72
2022/01/18 07:58:19;;;;;;;37.20;18.77;;;;;;;6.75;69.26;98551.34;5071862;28;20594;-71
2022/01/18 08:00:47;;;;;;;34.70;19.23;;;;;;;6.91;68.93;98557.31;5070054;28;20265;-71
2022/01/18 08:03:13;;;;;;;36.73;19.10;;;;;;;7.05;68.80;98563.41;5064843;28;20182;-71
2022/01/18 08:05:39;;;;;;;36.27;19.60;;;;;;;7.21;68.21;98553.66;5070396;28;20876;-70
2022/01/18 08:08:05;;;;;;;31.20;17.30;;;;;;;7.14;68.39;98562.81;5070208;28;20516;-71
2022/01/18 08:10:31;;;;;;;34.73;20.00;;;;;;;7.20;68.14;98551.16;5036866;28;20417;-71
2022/01/18 08:13:00;;;;;;;37.53;19.83;;;;;;;6.91;68.41;98559.06;5067283;28;20432;-70
2022/01/18 08:15:28;;;;;;;29.30;17.10;;;;;;;6.87;69.03;98562.78;5054343;28;20485;-70
2022/01/18 08:17:57;;;;;;;36.63;19.30;;;;;;;6.88;69.37;98551.41;5071648;28;20449;-70
2022/01/18 08:20:23;;;;;;;40.37;18.27;;;;;;;7.31;68.50;98547.88;5071302;28;20427;-70
2022/01/18 08:22:48;;;;;;;33.50;19.13;;;;;;;7.16;68.46;98554.91;5049660;28;20457;-70
2022/01/18 08:25:16;;;;;;;34.20;18.00;;;;;;;7.46;67.64;98559.91;5072069;28;20190;-69
2022/01/18 08:27:43;;;;;;;37.40;18.40;;;;;;;7.34;67.21;98564.16;5053491;28;20258;-71
2022/01/18 08:30:11;;;;;;;32.50;17.70;;;;;;;7.25;67.71;98561.31;5061720;28;20413;-70
2022/01/18 08:32:37;;;;;;;34.70;19.03;;;;;;;7.26;67.34;98570.81;5070325;28;20432;-71
2022/01/18 08:35:04;;;;;;;32.80;17.70;;;;;;;6.80;68.89;98572.78;5071279;28;20972;-72
2022/01/18 08:37:29;;;;;;;33.40;18.37;;;;;;;6.25;69.18;98575.19;5071242;28;20498;-71
2022/01/18 08:39:55;;;;;;;32.63;18.13;;;;;;;6.64;69.45;98577.25;5063976;28;20508;-71
2022/01/18 08:42:20;;;;;;;39.23;18.93;;;;;;;6.85;69.11;98573.31;5065364;28;20202;-70
2022/01/18 08:44:46;;;;;;;29.23;16.97;;;;;;;7.29;67.45;98566.22;5069248;28;20223;-71
2022/01/18 08:47:16;;;;;;;32.90;18.70;;;;;;;7.31;66.56;98564.34;5067584;28;20301;-70
2022/01/18 08:49:42;;;;;;;35.87;16.80;;;;;;;7.22;66.51;98576.19;5069857;28;20186;-72
2022/01/18 08:52:08;;;;;;;35.40;18.20;;;;;;;7.38;66.43;98570.84;5070746;28;20782;-71
2022/01/18 08:54:35;;;;;;;35.17;17.97;;;;;;;7.42;66.67;98573.25;5071070;28;21105;-72
2022/01/18 08:57:01;;;;;;;33.70;18.10;;;;;;;7.50;66.15;98579.66;5071157;28;20510;-69
2022/01/18 08:59:28;;;;;;;35.90;17.20;;;;;;;7.77;65.32;98581.41;5069513;28;20902;-72
2022/01/18 09:01:54;;;;;;;31.83;16.90;;;;;;;7.47;65.88;98576.41;5063519;28;20532;-70
2022/01/18 09:04:20;;;;;;;26.83;16.00;;;;;;;7.58;65.70;98576.56;5070067;28;20417;-71
2022/01/18 09:06:48;;;;;;;28.60;16.00;;;;;;;7.64;65.27;98581.34;5071594;28;20188;-72
2022/01/18 09:09:16;;;;;;;31.87;16.93;;;;;;;7.66;65.13;98576.06;5070134;28;20448;-72
2022/01/18 09:11:42;;;;;;;28.37;16.67;;;;;;;7.78;64.82;98571.78;5067777;28;20505;-72
2022/01/18 09:14:07;;;;;;;33.93;17.30;;;;;;;7.50;65.18;98574.44;5070939;28;20982;-71
2022/01/18 09:16:33;;;;;;;30.33;14.90;;;;;;;7.97;64.71;98572.25;5069831;28;20630;-69
2022/01/18 09:18:59;;;;;;;26.13;14.93;;;;;;;7.91;64.79;98577.06;5071409;28;20228;-72
2022/01/18 09:21:27;;;;;;;26.40;16.83;;;;;;;7.94;64.70;98582.09;5060009;28;20734;-71
2022/01/18 09:23:53;;;;;;;40.87;19.20;;;;;;;7.92;64.44;98576.13;5067918;28;20226;-71
2022/01/18 09:26:19;;;;;;;29.03;14.30;;;;;;;7.38;64.74;98578.66;5036234;28;20425;-72
2022/01/18 09:28:47;;;;;;;29.53;15.80;;;;;;;7.70;65.20;98572.28;5071582;28;20220;-70
2022/01/18 09:31:13;;;;;;;29.77;14.90;;;;;;;7.91;64.82;98575.25;5070895;28;20429;-73
2022/01/18 09:33:38;;;;;;;30.30;16.37;;;;;;;8.04;64.26;98584.88;5062766;28;20210;-71
2022/01/18 09:36:04;;;;;;;26.90;16.20;;;;;;;8.06;64.67;98585.63;5071765;28;20238;-71
2022/01/18 09:38:30;;;;;;;29.00;15.77;;;;;;;7.86;64.40;98579.13;5068709;28;20206;-71
2022/01/18 09:40:56;;;;;;;28.70;16.40;;;;;;;7.57;64.75;98587.06;5066796;28;20265;-69
2022/01/18 09:43:22;;;;;;;30.97;14.60;;;;;;;7.14;66.00;98588.91;5068412;28;20424;-70
2022/01/18 09:45:48;;;;;;;28.77;14.90;;;;;;;6.27;69.09;98594.16;5065179;28;20457;-71
2022/01/18 09:48:14;;;;;;;31.17;15.63;;;;;;;7.06;67.87;98596.34;5070758;28;20214;-71
2022/01/18 09:50:42;;;;;;;32.57;15.23;;;;;;;7.64;65.42;98586.59;5061803;28;20270;-70
2022/01/18 09:53:10;;;;;;;28.23;15.93;;;;;;;7.87;64.70;98592.09;5075655;28;20471;-69
2022/01/18 09:55:37;;;;;;;27.63;15.07;;;;;;;8.32;63.72;98589.09;5071238;28;20432;-70
2022/01/18 09:58:06;;;;;;;28.80;14.20;;;;;;;8.32;62.54;98581.25;5069576;28;20445;-70
2022/01/18 10:00:32;;;;;;;24.77;15.43;;;;;;;8.39;61.74;98581.66;5062826;28;20424;-69
2022/01/18 10:02:59;;;;;;;24.77;13.50;;;;;;;8.29;61.48;98576.25;5061838;28;20429;-70
2022/01/18 10:05:28;;;;;;;21.13;11.90;;;;;;;8.28;61.57;98579.81;5069664;28;20424;-71
2022/01/18 10:07:57;;;;;;;25.47;13.00;;;;;;;7.99;62.06;98585.19;5069343;28;20437;-70
2022/01/18 10:10:39;;;;;;;25.13;12.83;;;;;;;7.85;63.19;98578.31;5070066;28;20424;-73
2022/01/18 10:13:05;;;;;;;26.03;15.40;;;;;;;7.74;63.66;98575.56;5064089;28;20433;-71
2022/01/18 10:15:30;;;;;;;25.60;15.23;;;;;;;7.60;64.25;98577.31;5069687;28;20429;-70
2022/01/18 10:18:07;;;;;;;25.43;15.73;;;;;;;7.93;62.94;98575.19;5072027;28;20472;-70
2022/01/18 10:20:48;;;;;;;23.50;15.57;;;;;;;7.81;63.97;98575.03;5059570;28;20548;-69
2022/01/18 10:23:21;;;;;;;24.87;15.77;;;;;;;7.63;64.33;98568.41;5068210;28;21015;-70
2022/01/18 10:25:47;;;;;;;25.30;16.33;;;;;;;7.84;64.48;98569.63;5069365;28;20470;-70
2022/01/18 10:28:33;;;;;;;26.27;16.43;;;;;;;8.20;63.60;98567.25;5073826;28;20444;-71
2022/01/18 10:31:04;;;;;;;27.67;14.90;;;;;;;7.72;62.86;98572.22;5067246;28;20277;-71
2022/01/18 10:33:36;;;;;;;26.77;14.70;;;;;;;7.96;63.57;98559.28;5065659;28;20431;-70
2022/01/18 10:36:04;;;;;;;29.93;15.70;;;;;;;8.42;62.27;98555.34;5066970;28;20730;-70
2022/01/18 10:38:31;;;;;;;27.03;13.40;;;;;;;8.97;60.32;98555.91;5074185;28;20520;-68
2022/01/18 10:40:56;;;;;;;23.33;11.63;;;;;;;9.35;58.33;98548.88;5068859;28;20492;-70
2022/01/18 10:43:30;;;;;;;19.87;10.53;;;;;;;9.25;57.79;98559.16;5074150;28;20827;-71
2022/01/18 10:46:12;;;;;;;18.40;9.63;;;;;;;8.76;58.71;98551.25;5066177;28;20533;-71
2022/01/18 10:48:48;;;;;;;15.00;9.20;;;;;;;8.75;58.75;98551.38;5061504;28;20456;-71
2022/01/18 10:51:28;;;;;;;12.00;8.17;;;;;;;8.85;57.38;98546.31;5070415;28;20421;-71
2022/01/18 10:54:07;;;;;;;12.67;7.30;;;;;;;9.14;56.66;98541.59;5034888;28;20453;-70
2022/01/18 10:56:41;;;;;;;12.70;7.30;;;;;;;9.12;56.03;98535.69;5059971;28;20919;-70
2022/01/18 10:59:08;;;;;;;17.90;8.37;;;;;;;8.66;58.26;98537.16;5072824;28;20448;-72
2022/01/18 11:01:34;;;;;;;17.10;7.77;;;;;;;8.86;57.89;98537.53;5068835;28;20525;-69
2022/01/18 11:04:11;;;;;;;18.67;9.40;;;;;;;8.87;57.19;98531.34;5070757;28;20532;-71
2022/01/18 11:06:38;;;;;;;18.90;8.63;;;;;;;8.83;57.92;98524.66;5073691;28;20189;-71
2022/01/18 11:09:14;;;;;;;16.23;9.83;;;;;;;8.49;57.30;98520.06;5073445;28;20459;-70
2022/01/18 11:11:49;;;;;;;23.60;10.50;;;;;;;8.60;58.10;98521.91;5062394;28;20433;-69
2022/01/18 11:14:18;;;;;;;20.60;10.80;;;;;;;8.57;58.46;98516.88;5073695;28;20424;-70
2022/01/18 11:16:45;;;;;;;23.20;12.40;;;;;;;8.37;59.65;98510.44;5074142;28;20801;-71
2022/01/18 11:19:45;;;;;;;28.20;13.00;;;;;;;8.26;59.86;98514.59;5037076;28;20471;-70
2022/01/18 11:22:07;;;;;;;21.83;12.50;;;;;;;8.54;59.89;98504.88;5066812;28;20496;-70
2022/01/18 11:24:34;;;;;;;23.30;13.37;;;;;;;8.14;61.20;98511.06;5073674;28;20440;-70
2022/01/18 11:27:01;;;;;;;25.30;13.20;;;;;;;8.75;59.10;98504.31;5073224;28;20478;-72
2022/01/18 11:29:26;;;;;;;23.07;11.17;;;;;;;8.93;58.15;98504.78;5069790;28;20468;-70
2022/01/18 11:31:54;;;;;;;15.60;8.83;;;;;;;9.02;57.02;98511.09;5072385;28;20425;-72
2022/01/18 11:34:43;;;;;;;14.77;7.80;;;;;;;8.72;56.30;98512.38;5071698;28;20976;-71
2022/01/18 11:37:33;;;;;;;12.77;7.17;;;;;;;8.93;55.76;98512.63;5053258;28;20423;-71
2022/01/18 11:40:06;;;;;;;12.37;6.97;;;;;;;9.18;54.53;98510.84;5071691;28;20424;-73
2022/01/18 11:42:42;;;;;;;15.70;7.67;;;;;;;8.79;55.46;98505.75;5062120;28;20499;-70
2022/01/18 11:45:37;;;;;;;12.37;7.20;;;;;;;8.87;54.73;98497.38;5068146;28;20464;-70
2022/01/18 11:48:23;;;;;;;17.40;9.80;;;;;;;7.62;59.94;98502.38;5071535;28;21039;-71
2022/01/18 11:50:50;;;;;;;17.03;9.80;;;;;;;6.83;61.41;98506.59;5064377;28;20424;-70
2022/01/18 11:53:37;;;;;;;20.73;11.10;;;;;;;7.86;60.84;98498.19;5072846;28;20424;-72
2022/01/18 11:56:04;;;;;;;22.77;9.97;;;;;;;8.19;59.36;98492.47;5071654;28;20951;-71
2022/01/18 11:58:30;;;;;;;15.00;9.00;;;;;;;7.93;58.43;98491.63;5054396;28;20495;-70
2022/01/18 12:01:01;;;;;;;20.50;10.30;;;;;;;8.06;59.35;98492.47;5064557;28;20421;-71
2022/01/18 12:03:30;;;;;;;21.23;11.90;;;;;;;7.28;61.20;98495.91;5060944;28;20912;-70
2022/01/18 12:05:57;;;;;;;19.20;10.70;;;;;;;7.96;60.22;98494.03;5072852;28;20427;-71
2022/01/18 12:08:43;;;;;;;19.70;10.50;;;;;;;8.25;58.88;98489.41;5072622;28;20464;-70
2022/01/18 12:11:34;;;;;;;18.07;10.63;;;;;;;7.63;60.76;98490.13;5068885;28;20445;-70
2022/01/18 12:14:00;;;;;;;19.53;10.57;;;;;;;8.14;59.79;98492.78;5070666;28;20440;-71
2022/01/18 12:16:29;;;;;;;24.67;10.53;;;;;;;8.21;59.21;98484.50;5071655;28;20911;-71
2022/01/18 12:19:01;;;;;;;19.60;11.00;;;;;;;8.02;59.51;98493.63;5072113;28;20445;-70
2022/01/18 12:21:29;;;;;;;18.93;10.10;;;;;;;8.33;58.92;98493.28;5069357;28;20539;-70
2022/01/18 12:24:16;;;;;;;19.17;10.10;;;;;;;8.37;58.54;98484.31;5067722;28;20447;-71
2022/01/18 12:26:46;;;;;;;17.73;9.40;;;;;;;8.11;58.80;98485.16;5060548;28;20417;-73
2022/01/18 12:34:47;;;;;;;18.93;8.63;;;;;;;8.53;57.53;98489.31;5054028;28;20900;-71
2022/01/18 12:37:24;;;;;;;15.50;7.70;;;;;;;8.25;57.80;98475.53;5071696;28;20424;-70
2022/01/18 12:39:49;;;;;;;13.43;6.27;;;;;;;8.33;56.71;98475.00;5070581;28;20424;-69
2022/01/18 12:45:00;;;;;;;16.03;6.83;;;;;;;8.50;55.40;98469.47;5070035;28;20201;-71
2022/01/18 12:47:26;;;;;;;8.50;5.60;;;;;;;8.69;55.82;98461.16;5061146;28;20862;-72